createdAt,value
2022-09-15T00:01:09.758Z,0.97
2022-09-15T00:03:40.637Z,1.17
2022-09-15T00:06:12.413Z,0.80
2022-09-15T00:08:43.190Z,0.80
2022-09-15T00:11:16.292Z,1.03
2022-09-15T00:13:48.005Z,1.00
2022-09-15T00:16:37.656Z,0.87
2022-09-15T00:19:08.399Z,1.23
2022-09-15T00:21:41.590Z,1.10
2022-09-15T00:24:12.643Z,1.10
2022-09-15T00:26:43.310Z,1.10
2022-09-15T00:29:13.945Z,1.27
2022-09-15T00:31:44.533Z,0.63
2022-09-15T00:34:16.537Z,1.17
2022-09-15T00:36:47.050Z,1.60
2022-09-15T00:39:18.832Z,1.20
2022-09-15T00:41:49.529Z,1.10
2022-09-15T00:44:48.569Z,1.10
2022-09-15T00:47:21.079Z,1.47
2022-09-15T00:49:58.981Z,1.10
2022-09-15T00:52:31.460Z,1.87
2022-09-15T00:55:05.881Z,1.23
2022-09-15T00:57:39.371Z,1.30
2022-09-15T01:00:14.908Z,1.67
2022-09-15T01:02:47.356Z,1.23
2022-09-15T01:05:20.643Z,1.57
2022-09-15T01:07:54.966Z,1.20
2022-09-15T01:10:28.935Z,1.40
2022-09-15T01:13:01.962Z,1.50
2022-09-15T01:15:35.514Z,1.27
2022-09-15T01:18:13.088Z,1.30
2022-09-15T01:21:11.385Z,1.50
2022-09-15T01:24:08.788Z,1.40
2022-09-15T01:27:09.673Z,1.53
2022-09-15T01:30:08.900Z,1.37
2022-09-15T01:33:07.297Z,1.30
2022-09-15T01:35:55.101Z,1.20
2022-09-15T01:38:34.489Z,1.20
2022-09-15T01:41:09.074Z,1.23
2022-09-15T01:43:43.066Z,1.20
2022-09-15T01:46:16.334Z,1.40
2022-09-15T01:48:49.605Z,1.10
2022-09-15T01:51:21.040Z,1.10
2022-09-15T01:53:54.005Z,1.13
2022-09-15T01:56:24.674Z,1.40
2022-09-15T01:58:55.215Z,1.57
2022-09-15T02:01:31.376Z,1.33
2022-09-15T02:04:05.791Z,1.60
2022-09-15T02:06:40.058Z,1.13
2022-09-15T02:09:14.313Z,1.40
2022-09-15T02:11:49.499Z,2.17
2022-09-15T02:14:24.179Z,1.43
2022-09-15T02:16:57.029Z,1.87
2022-09-15T02:19:32.118Z,1.90
2022-09-15T02:22:08.205Z,1.70
2022-09-15T02:24:41.969Z,1.50
2022-09-15T02:27:15.729Z,2.13
2022-09-15T02:29:48.976Z,1.60
2022-09-15T02:32:23.291Z,1.93
2022-09-15T02:34:55.341Z,2.00
2022-09-15T02:37:27.274Z,1.53
2022-09-15T02:39:59.378Z,1.57
2022-09-15T02:42:32.107Z,1.63
2022-09-15T02:45:03.791Z,1.50
2022-09-15T02:47:34.334Z,2.53
2022-09-15T02:50:06.710Z,1.90
2022-09-15T02:52:37.651Z,1.73
2022-09-15T02:55:10.554Z,1.83
2022-09-15T02:57:41.171Z,1.80
2022-09-15T03:00:16.996Z,1.40
2022-09-15T03:02:50.367Z,1.93
2022-09-15T03:05:23.459Z,1.80
2022-09-15T03:07:54.816Z,1.57
2022-09-15T03:10:26.621Z,1.90
2022-09-15T03:12:57.567Z,1.37
2022-09-15T03:15:29.002Z,1.70
2022-09-15T03:17:59.794Z,1.60
2022-09-15T03:20:31.091Z,1.53
2022-09-15T03:23:03.243Z,1.37
2022-09-15T03:25:34.362Z,1.40
2022-09-15T03:28:05.261Z,1.50
2022-09-15T03:30:35.960Z,1.37
2022-09-15T03:33:06.984Z,1.70
2022-09-15T03:35:37.546Z,1.57
2022-09-15T03:38:08.429Z,1.70
2022-09-15T03:40:39.201Z,2.00
2022-09-15T03:43:09.733Z,1.60
2022-09-15T03:45:40.643Z,1.60
2022-09-15T03:48:11.387Z,1.30
2022-09-15T03:50:41.972Z,1.67
2022-09-15T03:53:12.503Z,1.60
2022-09-15T03:55:43.062Z,1.27
2022-09-15T03:58:14.700Z,1.90
2022-09-15T04:00:46.516Z,1.47
2022-09-15T04:03:17.089Z,1.30
2022-09-15T04:05:47.666Z,1.37
2022-09-15T04:08:18.184Z,1.60
2022-09-15T04:10:48.829Z,1.53
2022-09-15T04:13:19.356Z,1.67
2022-09-15T04:15:51.784Z,1.60
2022-09-15T04:18:22.542Z,1.63
2022-09-15T04:20:53.202Z,1.50
2022-09-15T04:23:23.779Z,1.40
2022-09-15T04:25:58.328Z,1.70
2022-09-15T04:28:30.379Z,1.70
2022-09-15T04:31:08.858Z,1.50
2022-09-15T04:33:40.860Z,1.80
2022-09-15T04:36:14.276Z,2.13
2022-09-15T04:38:45.108Z,1.57
2022-09-15T04:41:16.500Z,1.63
2022-09-15T04:43:47.363Z,1.50
2022-09-15T04:46:18.683Z,1.60
2022-09-15T04:48:49.557Z,1.67
2022-09-15T04:51:22.541Z,2.10
2022-09-15T04:56:30.402Z,1.70
2022-09-15T04:59:04.220Z,2.17
2022-09-15T05:01:36.322Z,1.30
2022-09-15T05:04:07.269Z,2.07
2022-09-15T05:06:38.709Z,1.60
2022-09-15T05:09:11.651Z,2.03
2022-09-15T05:11:42.390Z,1.80
2022-09-15T05:14:14.120Z,1.80
2022-09-15T05:16:44.683Z,1.70
2022-09-15T05:19:15.337Z,2.00
2022-09-15T05:21:46.155Z,1.80
2022-09-15T05:24:16.942Z,1.70
2022-09-15T05:26:47.553Z,1.70
2022-09-15T05:29:18.079Z,2.00
2022-09-15T05:31:49.040Z,2.07
2022-09-15T05:34:20.138Z,1.73
2022-09-15T05:36:50.694Z,2.57
2022-09-15T05:39:21.334Z,1.90
2022-09-15T05:41:52.242Z,2.00
2022-09-15T05:44:22.753Z,1.90
2022-09-15T05:46:53.347Z,2.60
2022-09-15T05:49:24.103Z,2.00
2022-09-15T05:51:54.854Z,1.83
2022-09-15T05:54:28.448Z,2.60
2022-09-15T05:56:59.132Z,2.20
2022-09-15T05:59:29.674Z,1.57
2022-09-15T06:02:00.374Z,1.57
2022-09-15T06:04:31.641Z,1.97
2022-09-15T06:07:02.155Z,2.03
2022-09-15T06:09:32.695Z,1.93
2022-09-15T06:12:03.963Z,2.03
2022-09-15T06:14:34.583Z,1.80
2022-09-15T06:17:05.159Z,1.80
2022-09-15T06:19:36.447Z,1.83
2022-09-15T06:22:07.228Z,2.00
2022-09-15T06:24:37.813Z,3.00
2022-09-15T06:27:09.427Z,2.60
2022-09-15T06:29:39.975Z,2.83
2022-09-15T06:32:10.740Z,3.30
2022-09-15T06:34:41.263Z,3.40
2022-09-15T06:37:12.155Z,3.03
2022-09-15T06:39:43.445Z,3.30
2022-09-15T06:42:14.368Z,3.07
2022-09-15T06:44:45.035Z,3.10
2022-09-15T06:47:18.271Z,2.43
2022-09-15T06:49:48.912Z,2.97
2022-09-15T06:52:19.414Z,2.90
2022-09-15T06:54:49.972Z,3.33
2022-09-15T06:57:20.614Z,3.00
2022-09-15T06:59:51.568Z,2.93
2022-09-15T07:02:22.252Z,3.03
2022-09-15T07:04:53.085Z,3.53
2022-09-15T07:07:23.726Z,2.77
2022-09-15T07:09:54.239Z,2.60
2022-09-15T07:15:03.696Z,3.07
2022-09-15T07:17:34.329Z,2.73
2022-09-15T07:20:05.724Z,2.83
2022-09-15T07:22:36.956Z,2.47
2022-09-15T07:25:09.218Z,2.17
2022-09-15T07:27:39.898Z,2.03
2022-09-15T07:30:13.991Z,1.97
2022-09-15T07:32:44.892Z,1.83
2022-09-15T07:35:15.706Z,2.30
2022-09-15T07:37:46.315Z,3.50
2022-09-15T07:40:17.288Z,2.47
2022-09-15T07:42:48.049Z,2.33
2022-09-15T07:45:18.925Z,2.60
2022-09-15T07:47:49.826Z,1.93
2022-09-15T07:50:21.568Z,2.17
2022-09-15T07:52:52.306Z,2.27
2022-09-15T07:55:22.963Z,1.47
2022-09-15T07:57:59.990Z,2.07
2022-09-15T08:00:31.747Z,1.97
2022-09-15T08:03:02.462Z,2.17
2022-09-15T08:05:38.134Z,2.03
2022-09-15T08:08:06.256Z,2.03
2022-09-15T08:10:39.216Z,2.10
2022-09-15T08:13:10.251Z,2.80
2022-09-15T08:15:40.904Z,2.70
2022-09-15T08:18:11.652Z,2.13
2022-09-15T08:20:42.959Z,2.10
2022-09-15T08:23:13.909Z,2.07
2022-09-15T08:25:44.689Z,2.57
2022-09-15T08:28:15.305Z,1.97
2022-09-15T08:30:46.322Z,2.17
2022-09-15T08:33:17.148Z,2.00
2022-09-15T08:35:47.908Z,2.30
2022-09-15T08:38:18.532Z,2.00
2022-09-15T08:40:50.057Z,1.87
2022-09-15T08:43:23.639Z,2.30
2022-09-15T08:45:58.979Z,1.83
2022-09-15T08:48:33.126Z,1.90
2022-09-15T08:51:07.371Z,2.00
2022-09-15T08:53:41.487Z,1.80
2022-09-15T08:56:17.711Z,2.10
2022-09-15T08:58:48.433Z,2.00
2022-09-15T09:01:26.625Z,1.90
2022-09-15T09:07:11.853Z,1.63
2022-09-15T09:09:46.169Z,2.10
2022-09-15T09:12:24.518Z,1.80
2022-09-15T09:15:05.220Z,2.33
2022-09-15T09:17:44.781Z,1.90
2022-09-15T09:20:32.264Z,2.30
2022-09-15T09:23:05.845Z,1.80
2022-09-15T09:25:36.945Z,2.13
2022-09-15T09:30:47.618Z,2.07
2022-09-15T09:33:24.252Z,1.90
2022-09-15T09:35:55.706Z,1.83
2022-09-15T09:38:28.685Z,1.63
2022-09-15T09:41:02.277Z,1.90
2022-09-15T09:43:33.141Z,2.57
2022-09-15T09:46:03.753Z,2.03
2022-09-15T09:48:36.186Z,2.33
2022-09-15T09:51:08.496Z,2.17
2022-09-15T09:53:39.218Z,1.97
2022-09-15T09:56:23.184Z,2.20
2022-09-15T09:58:54.559Z,2.10
2022-09-15T10:01:27.396Z,1.80
2022-09-15T10:04:16.262Z,1.90
2022-09-15T10:06:47.729Z,2.17
2022-09-15T10:09:20.379Z,1.70
2022-09-15T10:11:53.715Z,2.10
2022-09-15T10:14:27.102Z,2.40
2022-09-15T10:17:03.857Z,1.67
2022-09-15T10:19:38.001Z,1.50
2022-09-15T10:22:08.640Z,1.80
2022-09-15T10:24:41.168Z,2.27
2022-09-15T10:27:20.187Z,2.10
2022-09-15T10:29:50.740Z,1.60
2022-09-15T10:32:31.917Z,1.50
2022-09-15T10:35:05.526Z,2.10
2022-09-15T10:37:40.857Z,2.07
2022-09-15T10:40:30.742Z,1.72
2022-09-15T10:43:07.197Z,1.73
2022-09-15T10:45:40.018Z,2.00
2022-09-15T10:48:38.864Z,2.02
2022-09-15T10:51:17.707Z,2.02
2022-09-15T10:53:57.727Z,2.08
2022-09-15T10:56:31.957Z,1.70
2022-09-15T10:59:15.300Z,1.87
2022-09-15T11:02:02.463Z,1.77
2022-09-15T11:04:58.981Z,1.85
2022-09-15T11:10:15.334Z,1.77
2022-09-15T11:12:52.756Z,1.80
2022-09-15T11:18:46.309Z,1.90
2022-09-15T11:21:28.414Z,2.27
2022-09-15T11:24:12.010Z,2.22
2022-09-15T11:26:45.960Z,2.02
2022-09-15T11:29:19.828Z,2.35
2022-09-15T11:31:53.839Z,2.55
2022-09-15T11:34:27.742Z,2.27
2022-09-15T11:37:02.907Z,2.20
2022-09-15T11:39:37.085Z,2.52
2022-09-15T11:42:11.227Z,2.70
2022-09-15T11:44:45.338Z,2.30
2022-09-15T11:47:29.950Z,1.98
2022-09-15T11:50:04.168Z,2.25
2022-09-15T11:52:47.395Z,2.17
2022-09-15T11:55:24.055Z,1.73
2022-09-15T11:58:00.925Z,1.50
2022-09-15T12:00:31.918Z,1.50
2022-09-15T12:03:09.396Z,1.57
2022-09-15T12:05:43.146Z,1.57
2022-09-15T12:08:17.244Z,1.50
2022-09-15T12:10:52.364Z,1.20
2022-09-15T12:13:25.480Z,1.40
2022-09-15T12:15:57.550Z,1.10
2022-09-15T12:18:39.322Z,1.47
2022-09-15T12:21:07.477Z,1.13
2022-09-15T12:23:41.224Z,1.60
2022-09-15T12:26:18.969Z,1.50
2022-09-15T12:29:02.012Z,1.40
2022-09-15T12:31:41.771Z,1.40
2022-09-15T12:34:37.059Z,1.32
2022-09-15T12:37:14.986Z,1.07
2022-09-15T12:39:47.057Z,1.27
2022-09-15T12:42:21.459Z,1.50
2022-09-15T12:44:59.196Z,2.17
2022-09-15T12:47:34.829Z,1.37
2022-09-15T12:50:11.867Z,1.70
2022-09-15T12:52:49.148Z,1.20
2022-09-15T12:55:23.991Z,1.80
2022-09-15T12:58:00.451Z,1.40
2022-09-15T13:00:54.829Z,1.67
2022-09-15T13:06:21.827Z,1.55
2022-09-15T13:08:55.096Z,1.70
2022-09-15T13:11:39.281Z,1.37
2022-09-15T13:14:15.159Z,1.55
2022-09-15T13:16:57.327Z,1.50
2022-09-15T13:19:31.825Z,1.62
2022-09-15T13:22:06.978Z,1.53
2022-09-15T13:24:48.227Z,1.53
2022-09-15T13:27:21.096Z,1.40
2022-09-15T13:29:54.319Z,1.62
2022-09-15T13:32:36.704Z,1.75
2022-09-15T13:35:24.040Z,2.20
2022-09-15T13:41:50.929Z,1.50
2022-09-15T13:44:51.786Z,1.67
2022-09-15T13:50:32.311Z,1.85
2022-09-15T13:53:22.313Z,1.90
2022-09-15T13:55:54.896Z,1.80
2022-09-15T14:01:05.753Z,1.72
2022-09-15T14:03:42.771Z,2.02
2022-09-15T14:06:19.338Z,1.65
2022-09-15T14:08:53.344Z,1.75
2022-09-15T14:11:32.720Z,1.50
2022-09-15T14:14:03.599Z,1.57
2022-09-15T14:16:36.639Z,1.50
2022-09-15T14:19:24.477Z,1.57
2022-09-15T14:21:58.508Z,1.52
2022-09-15T14:24:30.740Z,1.30
2022-09-15T14:27:04.706Z,1.32
2022-09-15T14:29:37.108Z,1.52
2022-09-15T14:32:12.155Z,1.57
2022-09-15T14:34:44.704Z,1.47
2022-09-15T14:37:19.830Z,1.10
2022-09-15T14:39:54.864Z,1.50
2022-09-15T14:42:30.108Z,1.40
2022-09-15T14:47:45.776Z,1.10
2022-09-15T14:50:19.436Z,1.37
2022-09-15T14:52:52.829Z,1.27
2022-09-15T14:55:28.190Z,1.52
2022-09-15T14:58:02.998Z,1.30
2022-09-15T15:03:21.531Z,1.20
2022-09-15T15:06:02.869Z,1.47
2022-09-15T15:08:33.944Z,1.12
2022-09-15T15:11:06.365Z,1.30
2022-09-15T15:13:38.569Z,1.47
2022-09-15T15:16:12.191Z,1.27
2022-09-15T15:18:44.083Z,1.30
2022-09-15T15:21:35.088Z,1.30
2022-09-15T15:24:17.460Z,1.50
2022-09-15T15:26:50.205Z,1.75
2022-09-15T15:29:43.219Z,1.67
2022-09-15T15:32:16.513Z,1.42
2022-09-15T15:34:55.891Z,1.22
2022-09-15T15:37:29.428Z,1.42
2022-09-15T15:40:04.055Z,1.07
2022-09-15T15:42:35.830Z,1.12
2022-09-15T15:45:20.722Z,1.45
2022-09-15T15:47:51.430Z,1.80
2022-09-15T15:50:24.981Z,1.45
2022-09-15T15:52:55.880Z,1.45
2022-09-15T15:55:28.823Z,1.30
2022-09-15T15:57:59.526Z,1.03
2022-09-15T16:00:34.861Z,0.80
2022-09-15T16:03:06.644Z,0.90
2022-09-15T16:05:37.861Z,0.93
2022-09-15T16:08:13.196Z,0.97
2022-09-15T16:10:46.680Z,1.30
2022-09-15T16:13:19.031Z,0.60
2022-09-15T16:15:50.240Z,0.90
2022-09-15T16:18:21.672Z,1.67
2022-09-15T16:20:52.494Z,1.03
2022-09-15T16:23:24.497Z,1.10
2022-09-15T16:25:57.766Z,1.00
2022-09-15T16:28:29.627Z,1.30
2022-09-15T16:31:00.952Z,1.10
2022-09-15T16:33:34.669Z,0.83
2022-09-15T16:36:06.347Z,1.00
2022-09-15T16:38:38.199Z,1.03
2022-09-15T16:41:15.901Z,0.93
2022-09-15T16:43:47.114Z,0.77
2022-09-15T16:46:18.583Z,0.90
2022-09-15T16:48:49.378Z,1.17
2022-09-15T16:51:28.674Z,0.93
2022-09-15T16:53:54.701Z,1.00
2022-09-15T16:56:25.323Z,0.90
2022-09-15T16:59:00.298Z,0.73
2022-09-15T17:01:29.444Z,1.00
2022-09-15T17:04:00.704Z,1.00
2022-09-15T17:06:31.573Z,1.10
2022-09-15T17:09:02.234Z,1.10
2022-09-15T17:11:32.832Z,0.93
2022-09-15T17:14:03.486Z,1.13
2022-09-15T17:16:34.016Z,1.07
2022-09-15T17:19:04.640Z,0.80
2022-09-15T17:24:13.486Z,1.30
2022-09-15T17:26:44.126Z,0.93
2022-09-15T17:29:14.783Z,1.03
2022-09-15T17:31:45.568Z,1.13
2022-09-15T17:34:16.152Z,1.00
2022-09-15T17:36:47.070Z,0.97
2022-09-15T17:39:17.691Z,1.30
2022-09-15T17:41:48.333Z,0.90
2022-09-15T17:44:19.054Z,0.80
2022-09-15T17:46:49.738Z,0.80
2022-09-15T17:51:59.865Z,1.17
2022-09-15T17:54:31.398Z,1.03
2022-09-15T17:57:02.079Z,0.67
2022-09-15T17:59:32.733Z,2.07
2022-09-15T18:02:03.587Z,1.07
2022-09-15T18:04:34.299Z,0.70
2022-09-15T18:07:05.015Z,1.13
2022-09-15T18:09:35.609Z,0.90
2022-09-15T18:12:06.614Z,0.67
2022-09-15T18:14:37.973Z,0.83
2022-09-15T18:17:10.309Z,0.90
2022-09-15T18:19:41.496Z,0.77
2022-09-15T18:22:14.525Z,0.90
2022-09-15T18:24:45.165Z,1.00
2022-09-15T18:27:15.847Z,0.90
2022-09-15T18:29:46.909Z,0.90
2022-09-15T18:32:17.525Z,1.07
2022-09-15T18:34:49.322Z,1.00
2022-09-15T18:37:20.004Z,1.10
2022-09-15T18:39:51.422Z,1.00
2022-09-15T18:42:22.519Z,0.97
2022-09-15T18:44:53.852Z,1.00
2022-09-15T18:47:24.529Z,1.37
2022-09-15T18:49:55.624Z,0.90
2022-09-15T18:52:27.013Z,1.13
2022-09-15T18:54:58.729Z,1.07
2022-09-15T18:57:29.776Z,1.10
2022-09-15T19:00:00.715Z,1.17
2022-09-15T19:02:31.796Z,1.20
2022-09-15T19:05:03.613Z,0.97
2022-09-15T19:07:34.503Z,1.03
2022-09-15T19:10:05.847Z,0.93
2022-09-15T19:12:37.279Z,0.87
2022-09-15T19:15:11.479Z,0.93
2022-09-15T19:17:43.756Z,1.03
2022-09-15T19:20:16.642Z,0.90
2022-09-15T19:25:28.886Z,0.77
2022-09-15T19:28:00.334Z,1.40
2022-09-15T19:30:32.193Z,0.97
2022-09-15T19:33:05.172Z,0.97
2022-09-15T19:35:35.845Z,0.97
2022-09-15T19:38:06.420Z,1.43
2022-09-15T19:43:14.362Z,1.27
2022-09-15T19:45:46.314Z,1.10
2022-09-15T19:48:17.589Z,0.90
2022-09-15T19:50:48.205Z,1.00
2022-09-15T19:53:18.724Z,1.30
2022-09-15T19:55:53.196Z,1.13
2022-09-15T19:58:23.730Z,1.17
2022-09-15T20:00:57.849Z,1.00
2022-09-15T20:03:29.428Z,1.17
2022-09-15T20:06:00.038Z,1.20
2022-09-15T20:08:30.537Z,1.00
2022-09-15T20:11:01.509Z,0.90
2022-09-15T20:13:32.029Z,1.07
2022-09-15T20:16:03.791Z,0.77
2022-09-15T20:18:36.262Z,1.40
2022-09-15T20:21:10.394Z,1.17
2022-09-15T20:23:41.188Z,1.20
2022-09-15T20:26:14.296Z,1.40
2022-09-15T20:28:45.148Z,2.00
2022-09-15T20:31:17.614Z,1.20
2022-09-15T20:33:49.122Z,1.40
2022-09-15T20:36:23.520Z,1.33
2022-09-15T20:38:54.733Z,1.40
2022-09-15T20:41:27.522Z,1.47
2022-09-15T20:43:58.244Z,1.50
2022-09-15T20:46:31.475Z,1.23
2022-09-15T20:49:02.501Z,1.10
2022-09-15T20:51:35.442Z,1.50
2022-09-15T20:54:06.810Z,1.00
2022-09-15T20:56:38.462Z,1.10
2022-09-15T20:59:10.764Z,1.10
2022-09-15T21:01:42.123Z,0.90
2022-09-15T21:04:13.139Z,1.07
2022-09-15T21:06:43.812Z,1.00
2022-09-15T21:09:14.845Z,1.43
2022-09-15T21:11:47.349Z,1.50
2022-09-15T21:14:17.953Z,1.30
2022-09-15T21:16:48.541Z,1.00
2022-09-15T21:19:19.164Z,1.30
2022-09-15T21:21:49.787Z,1.20
2022-09-15T21:24:21.466Z,1.77
2022-09-15T21:27:10.391Z,1.17
2022-09-15T21:29:41.089Z,1.40
2022-09-15T21:32:11.725Z,1.47
2022-09-15T21:34:42.402Z,1.40
2022-09-15T21:37:18.034Z,1.33
2022-09-15T21:39:48.675Z,1.40
2022-09-15T21:42:19.395Z,1.40
2022-09-15T21:44:49.975Z,1.10
2022-09-15T21:47:20.588Z,1.20
2022-09-15T21:49:51.881Z,1.90
2022-09-15T21:52:22.505Z,1.20
2022-09-15T21:54:53.415Z,1.33
2022-09-15T21:57:24.040Z,1.10
2022-09-15T21:59:54.619Z,1.27
2022-09-15T22:02:25.240Z,0.83
2022-09-15T22:04:56.801Z,1.67
2022-09-15T22:07:27.342Z,1.50
2022-09-15T22:09:57.899Z,1.20
2022-09-15T22:12:28.385Z,1.33
2022-09-15T22:14:59.144Z,1.60
2022-09-15T22:17:29.596Z,1.70
2022-09-15T22:20:01.215Z,1.70
2022-09-15T22:22:32.816Z,1.57
2022-09-15T22:25:03.234Z,1.97
2022-09-15T22:27:34.320Z,1.93
2022-09-15T22:30:05.562Z,1.37
2022-09-15T22:32:36.127Z,1.30
2022-09-15T22:35:08.081Z,1.27
2022-09-15T22:37:38.568Z,1.30
2022-09-15T22:40:11.687Z,1.30
2022-09-15T22:42:42.201Z,1.50
2022-09-15T22:45:13.336Z,1.60
2022-09-15T22:47:43.942Z,1.70
2022-09-15T22:50:14.451Z,1.53
2022-09-15T22:52:44.936Z,1.47
2022-09-15T22:55:15.531Z,1.30
2022-09-15T22:57:46.038Z,2.10
2022-09-15T23:00:18.154Z,1.60
2022-09-15T23:02:48.631Z,2.17
2022-09-15T23:05:19.320Z,1.77
2022-09-15T23:07:49.911Z,3.13
2022-09-15T23:10:20.482Z,1.73
2022-09-15T23:12:50.927Z,1.60
2022-09-15T23:15:21.686Z,2.20
2022-09-15T23:17:52.135Z,2.80
2022-09-15T23:20:23.068Z,2.40
2022-09-15T23:22:54.823Z,2.30
2022-09-15T23:25:25.300Z,1.80
2022-09-15T23:27:55.897Z,2.20
2022-09-15T23:30:26.369Z,2.30
2022-09-15T23:32:57.794Z,2.20
2022-09-15T23:35:28.298Z,2.30
2022-09-15T23:37:59.828Z,2.10
2022-09-15T23:40:30.610Z,1.90
2022-09-15T23:43:01.136Z,1.97
2022-09-15T23:45:31.633Z,2.00
2022-09-15T23:48:02.070Z,2.10
2022-09-15T23:50:32.574Z,1.90
2022-09-15T23:53:03.050Z,2.13
2022-09-15T23:55:33.734Z,1.70
2022-09-15T23:58:04.639Z,1.43
